sensor_id;sensor_type;location;lat;lon;timestamp;P1;durP1;ratioP1;P2;durP2;ratioP2
75234;SDS011;63817;51.228;-1.472;2023-04-03T00:00:46;11.45;;;4.30;;
75234;SDS011;63817;51.228;-1.472;2023-04-03T00:03:13;14.30;;;4.15;;
75234;SDS011;63817;51.228;-1.472;2023-04-03T00:05:38;14.57;;;3.58;;
75234;SDS011;63817;51.228;-1.472;2023-04-03T00:08:03;8.10;;;3.60;;
75234;SDS011;63817;51.228;-1.472;2023-04-03T00:10:32;16.05;;;4.90;;
75234;SDS011;63817;51.228;-1.472;2023-04-03T00:12:58;15.02;;;5.68;;
75234;SDS011;63817;51.228;-1.472;2023-04-03T00:15:23;15.25;;;4.28;;
75234;SDS011;63817;51.228;-1.472;2023-04-03T00:17:49;13.77;;;4.00;;
75234;SDS011;63817;51.228;-1.472;2023-04-03T00:20:14;14.07;;;4.93;;
75234;SDS011;63817;51.228;-1.472;2023-04-03T00:22:40;14.57;;;4.35;;
75234;SDS011;63817;51.228;-1.472;2023-04-03T00:25:05;14.75;;;4.68;;
75234;SDS011;63817;51.228;-1.472;2023-04-03T00:27:31;23.70;;;4.57;;
75234;SDS011;63817;51.228;-1.472;2023-04-03T00:29:57;16.88;;;4.28;;
75234;SDS011;63817;51.228;-1.472;2023-04-03T00:32:22;10.18;;;3.80;;
75234;SDS011;63817;51.228;-1.472;2023-04-03T00:34:47;25.60;;;5.10;;
75234;SDS011;63817;51.228;-1.472;2023-04-03T00:37:13;12.50;;;3.72;;
75234;SDS011;63817;51.228;-1.472;2023-04-03T00:39:38;12.73;;;3.88;;
75234;SDS011;63817;51.228;-1.472;2023-04-03T00:42:04;14.82;;;4.32;;
75234;SDS011;63817;51.228;-1.472;2023-04-03T00:46:58;13.20;;;4.05;;
75234;SDS011;63817;51.228;-1.472;2023-04-03T00:49:24;15.52;;;4.00;;
75234;SDS011;63817;51.228;-1.472;2023-04-03T00:51:50;14.77;;;3.83;;
75234;SDS011;63817;51.228;-1.472;2023-04-03T00:54:16;11.38;;;3.65;;
75234;SDS011;63817;51.228;-1.472;2023-04-03T00:56:41;13.23;;;3.83;;
75234;SDS011;63817;51.228;-1.472;2023-04-03T00:59:08;11.10;;;4.22;;
75234;SDS011;63817;51.228;-1.472;2023-04-03T01:01:36;10.40;;;3.95;;
75234;SDS011;63817;51.228;-1.472;2023-04-03T01:04:03;11.48;;;3.88;;
75234;SDS011;63817;51.228;-1.472;2023-04-03T01:06:32;15.15;;;4.60;;
75234;SDS011;63817;51.228;-1.472;2023-04-03T01:08:59;19.88;;;3.50;;
75234;SDS011;63817;51.228;-1.472;2023-04-03T01:11:25;17.20;;;4.63;;
75234;SDS011;63817;51.228;-1.472;2023-04-03T01:13:51;13.95;;;4.22;;
75234;SDS011;63817;51.228;-1.472;2023-04-03T01:16:17;14.13;;;4.13;;
75234;SDS011;63817;51.228;-1.472;2023-04-03T01:18:43;11.98;;;3.25;;
75234;SDS011;63817;51.228;-1.472;2023-04-03T01:26:43;12.48;;;3.30;;
75234;SDS011;63817;51.228;-1.472;2023-04-03T01:29:09;17.02;;;4.10;;
75234;SDS011;63817;51.228;-1.472;2023-04-03T01:34:17;11.95;;;4.22;;
75234;SDS011;63817;51.228;-1.472;2023-04-03T01:36:43;11.07;;;3.35;;
75234;SDS011;63817;51.228;-1.472;2023-04-03T01:39:09;13.52;;;4.18;;
75234;SDS011;63817;51.228;-1.472;2023-04-03T01:41:34;16.08;;;3.92;;
75234;SDS011;63817;51.228;-1.472;2023-04-03T01:44:00;13.48;;;3.22;;
75234;SDS011;63817;51.228;-1.472;2023-04-03T01:46:25;15.20;;;4.43;;
75234;SDS011;63817;51.228;-1.472;2023-04-03T01:48:51;16.42;;;3.97;;
75234;SDS011;63817;51.228;-1.472;2023-04-03T01:51:16;10.38;;;3.33;;
75234;SDS011;63817;51.228;-1.472;2023-04-03T01:53:42;12.88;;;3.83;;
75234;SDS011;63817;51.228;-1.472;2023-04-03T01:56:07;15.43;;;3.50;;
75234;SDS011;63817;51.228;-1.472;2023-04-03T01:58:33;10.52;;;3.80;;
75234;SDS011;63817;51.228;-1.472;2023-04-03T02:00:58;10.30;;;3.50;;
75234;SDS011;63817;51.228;-1.472;2023-04-03T02:03:23;19.73;;;3.58;;
75234;SDS011;63817;51.228;-1.472;2023-04-03T02:05:49;12.15;;;3.35;;
75234;SDS011;63817;51.228;-1.472;2023-04-03T02:08:15;10.18;;;3.90;;
75234;SDS011;63817;51.228;-1.472;2023-04-03T02:10:42;17.00;;;3.58;;
75234;SDS011;63817;51.228;-1.472;2023-04-03T02:13:08;19.75;;;3.83;;
75234;SDS011;63817;51.228;-1.472;2023-04-03T02:15:37;12.20;;;3.00;;
75234;SDS011;63817;51.228;-1.472;2023-04-03T02:18:03;14.18;;;3.15;;
75234;SDS011;63817;51.228;-1.472;2023-04-03T02:20:29;13.68;;;3.50;;
75234;SDS011;63817;51.228;-1.472;2023-04-03T02:22:54;13.38;;;3.63;;
75234;SDS011;63817;51.228;-1.472;2023-04-03T02:25:19;8.02;;;2.97;;
75234;SDS011;63817;51.228;-1.472;2023-04-03T02:27:45;16.23;;;3.03;;
75234;SDS011;63817;51.228;-1.472;2023-04-03T02:30:11;21.73;;;3.80;;
75234;SDS011;63817;51.228;-1.472;2023-04-03T02:32:36;10.82;;;2.58;;
75234;SDS011;63817;51.228;-1.472;2023-04-03T02:35:02;14.80;;;3.28;;
75234;SDS011;63817;51.228;-1.472;2023-04-03T02:37:27;13.45;;;3.05;;
75234;SDS011;63817;51.228;-1.472;2023-04-03T02:39:53;15.43;;;3.35;;
75234;SDS011;63817;51.228;-1.472;2023-04-03T02:42:18;13.05;;;3.40;;
75234;SDS011;63817;51.228;-1.472;2023-04-03T02:44:43;16.30;;;3.10;;
75234;SDS011;63817;51.228;-1.472;2023-04-03T02:47:09;16.80;;;3.00;;
75234;SDS011;63817;51.228;-1.472;2023-04-03T02:49:35;11.07;;;2.90;;
75234;SDS011;63817;51.228;-1.472;2023-04-03T02:52:00;16.25;;;3.28;;
75234;SDS011;63817;51.228;-1.472;2023-04-03T02:54:25;21.05;;;4.13;;
75234;SDS011;63817;51.228;-1.472;2023-04-03T02:56:53;14.05;;;3.35;;
75234;SDS011;63817;51.228;-1.472;2023-04-03T02:59:19;13.52;;;3.03;;
75234;SDS011;63817;51.228;-1.472;2023-04-03T03:01:45;15.50;;;3.13;;
75234;SDS011;63817;51.228;-1.472;2023-04-03T03:04:10;18.10;;;4.22;;
75234;SDS011;63817;51.228;-1.472;2023-04-03T03:06:36;14.43;;;3.53;;
75234;SDS011;63817;51.228;-1.472;2023-04-03T03:09:01;15.57;;;3.15;;
75234;SDS011;63817;51.228;-1.472;2023-04-03T03:11:28;16.52;;;3.00;;
75234;SDS011;63817;51.228;-1.472;2023-04-03T03:13:54;17.55;;;2.70;;
75234;SDS011;63817;51.228;-1.472;2023-04-03T03:16:19;13.50;;;3.17;;
75234;SDS011;63817;51.228;-1.472;2023-04-03T03:18:45;20.80;;;3.38;;
75234;SDS011;63817;51.228;-1.472;2023-04-03T03:21:10;18.08;;;2.90;;
75234;SDS011;63817;51.228;-1.472;2023-04-03T03:23:36;12.48;;;2.75;;
75234;SDS011;63817;51.228;-1.472;2023-04-03T03:26:03;14.75;;;3.15;;
75234;SDS011;63817;51.228;-1.472;2023-04-03T03:28:32;16.15;;;4.32;;
75234;SDS011;63817;51.228;-1.472;2023-04-03T03:30:58;9.85;;;2.70;;
75234;SDS011;63817;51.228;-1.472;2023-04-03T03:33:24;16.52;;;3.10;;
75234;SDS011;63817;51.228;-1.472;2023-04-03T03:35:51;15.82;;;3.67;;
75234;SDS011;63817;51.228;-1.472;2023-04-03T03:38:17;19.88;;;3.10;;
75234;SDS011;63817;51.228;-1.472;2023-04-03T03:40:42;17.10;;;4.18;;
75234;SDS011;63817;51.228;-1.472;2023-04-03T03:43:08;12.98;;;2.53;;
75234;SDS011;63817;51.228;-1.472;2023-04-03T03:45:33;10.63;;;3.72;;
75234;SDS011;63817;51.228;-1.472;2023-04-03T03:47:59;14.25;;;3.63;;
75234;SDS011;63817;51.228;-1.472;2023-04-03T03:50:25;9.32;;;3.08;;
75234;SDS011;63817;51.228;-1.472;2023-04-03T03:52:50;13.23;;;2.90;;
75234;SDS011;63817;51.228;-1.472;2023-04-03T03:55:15;9.35;;;3.10;;
75234;SDS011;63817;51.228;-1.472;2023-04-03T03:57:41;11.60;;;3.00;;
75234;SDS011;63817;51.228;-1.472;2023-04-03T04:00:07;15.88;;;3.05;;
75234;SDS011;63817;51.228;-1.472;2023-04-03T04:02:33;12.13;;;3.50;;
75234;SDS011;63817;51.228;-1.472;2023-04-03T04:04:59;12.30;;;2.85;;
75234;SDS011;63817;51.228;-1.472;2023-04-03T04:07:24;12.93;;;3.80;;
75234;SDS011;63817;51.228;-1.472;2023-04-03T04:09:53;14.68;;;3.40;;
75234;SDS011;63817;51.228;-1.472;2023-04-03T04:12:18;20.63;;;3.00;;
75234;SDS011;63817;51.228;-1.472;2023-04-03T04:14:44;15.82;;;2.72;;
75234;SDS011;63817;51.228;-1.472;2023-04-03T04:17:11;11.27;;;2.58;;
75234;SDS011;63817;51.228;-1.472;2023-04-03T04:19:37;11.77;;;2.45;;
75234;SDS011;63817;51.228;-1.472;2023-04-03T04:22:03;12.68;;;2.38;;
75234;SDS011;63817;51.228;-1.472;2023-04-03T04:24:28;12.13;;;2.90;;
75234;SDS011;63817;51.228;-1.472;2023-04-03T04:26:53;18.15;;;3.13;;
75234;SDS011;63817;51.228;-1.472;2023-04-03T04:29:19;15.07;;;3.25;;
75234;SDS011;63817;51.228;-1.472;2023-04-03T04:31:44;25.67;;;3.78;;
75234;SDS011;63817;51.228;-1.472;2023-04-03T04:34:10;8.32;;;2.40;;
75234;SDS011;63817;51.228;-1.472;2023-04-03T04:36:35;8.32;;;2.45;;
75234;SDS011;63817;51.228;-1.472;2023-04-03T04:39:01;8.68;;;2.97;;
75234;SDS011;63817;51.228;-1.472;2023-04-03T04:41:26;22.67;;;3.10;;
75234;SDS011;63817;51.228;-1.472;2023-04-03T04:43:52;13.27;;;2.28;;
75234;SDS011;63817;51.228;-1.472;2023-04-03T04:46:17;15.55;;;3.53;;
75234;SDS011;63817;51.228;-1.472;2023-04-03T04:48:43;15.70;;;2.63;;
75234;SDS011;63817;51.228;-1.472;2023-04-03T04:51:08;13.38;;;2.22;;
75234;SDS011;63817;51.228;-1.472;2023-04-03T04:53:34;11.02;;;3.17;;
75234;SDS011;63817;51.228;-1.472;2023-04-03T04:55:59;13.40;;;2.78;;
75234;SDS011;63817;51.228;-1.472;2023-04-03T04:58:25;13.15;;;2.85;;
75234;SDS011;63817;51.228;-1.472;2023-04-03T05:00:58;14.77;;;3.28;;
75234;SDS011;63817;51.228;-1.472;2023-04-03T05:03:26;13.75;;;2.45;;
75234;SDS011;63817;51.228;-1.472;2023-04-03T05:05:52;16.13;;;3.45;;
75234;SDS011;63817;51.228;-1.472;2023-04-03T05:08:17;21.67;;;2.67;;
75234;SDS011;63817;51.228;-1.472;2023-04-03T05:10:44;13.50;;;2.60;;
75234;SDS011;63817;51.228;-1.472;2023-04-03T05:13:10;15.82;;;2.72;;
75234;SDS011;63817;51.228;-1.472;2023-04-03T05:15:35;25.58;;;3.95;;
75234;SDS011;63817;51.228;-1.472;2023-04-03T05:18:01;17.63;;;3.95;;
75234;SDS011;63817;51.228;-1.472;2023-04-03T05:20:26;14.43;;;3.33;;
75234;SDS011;63817;51.228;-1.472;2023-04-03T05:22:51;10.05;;;3.15;;
75234;SDS011;63817;51.228;-1.472;2023-04-03T05:25:17;15.63;;;3.50;;
75234;SDS011;63817;51.228;-1.472;2023-04-03T05:27:42;15.60;;;3.35;;
75234;SDS011;63817;51.228;-1.472;2023-04-03T05:30:08;13.63;;;4.95;;
75234;SDS011;63817;51.228;-1.472;2023-04-03T05:32:33;11.35;;;3.80;;
75234;SDS011;63817;51.228;-1.472;2023-04-03T05:34:59;10.07;;;3.33;;
75234;SDS011;63817;51.228;-1.472;2023-04-03T05:37:24;20.95;;;4.28;;
75234;SDS011;63817;51.228;-1.472;2023-04-03T05:39:50;12.02;;;4.32;;
75234;SDS011;63817;51.228;-1.472;2023-04-03T05:42:15;16.90;;;4.47;;
75234;SDS011;63817;51.228;-1.472;2023-04-03T05:44:41;16.55;;;4.03;;
75234;SDS011;63817;51.228;-1.472;2023-04-03T05:47:08;14.32;;;4.10;;
75234;SDS011;63817;51.228;-1.472;2023-04-03T05:49:33;17.35;;;4.88;;
75234;SDS011;63817;51.228;-1.472;2023-04-03T05:51:58;12.90;;;4.13;;
75234;SDS011;63817;51.228;-1.472;2023-04-03T05:54:28;18.63;;;4.15;;
75234;SDS011;63817;51.228;-1.472;2023-04-03T05:56:54;12.70;;;3.78;;
75234;SDS011;63817;51.228;-1.472;2023-04-03T05:59:20;14.45;;;3.88;;
75234;SDS011;63817;51.228;-1.472;2023-04-03T06:01:46;17.35;;;3.85;;
75234;SDS011;63817;51.228;-1.472;2023-04-03T06:04:12;9.95;;;2.65;;
75234;SDS011;63817;51.228;-1.472;2023-04-03T06:09:13;11.60;;;3.58;;
75234;SDS011;63817;51.228;-1.472;2023-04-03T06:11:39;12.13;;;3.95;;
75234;SDS011;63817;51.228;-1.472;2023-04-03T06:14:04;14.20;;;2.65;;
75234;SDS011;63817;51.228;-1.472;2023-04-03T06:16:30;14.85;;;2.60;;
75234;SDS011;63817;51.228;-1.472;2023-04-03T06:18:55;16.30;;;2.70;;
75234;SDS011;63817;51.228;-1.472;2023-04-03T06:21:21;17.05;;;2.60;;
75234;SDS011;63817;51.228;-1.472;2023-04-03T06:23:46;10.80;;;2.65;;
75234;SDS011;63817;51.228;-1.472;2023-04-03T06:26:11;16.73;;;2.80;;
75234;SDS011;63817;51.228;-1.472;2023-04-03T06:28:37;11.77;;;3.08;;
75234;SDS011;63817;51.228;-1.472;2023-04-03T06:31:02;12.50;;;2.47;;
75234;SDS011;63817;51.228;-1.472;2023-04-03T06:33:28;10.05;;;2.65;;
75234;SDS011;63817;51.228;-1.472;2023-04-03T06:35:57;15.70;;;3.20;;
75234;SDS011;63817;51.228;-1.472;2023-04-03T06:38:23;18.52;;;3.10;;
75234;SDS011;63817;51.228;-1.472;2023-04-03T06:40:48;20.50;;;3.03;;
75234;SDS011;63817;51.228;-1.472;2023-04-03T06:43:14;10.23;;;2.90;;
75234;SDS011;63817;51.228;-1.472;2023-04-03T06:45:39;15.27;;;2.60;;
75234;SDS011;63817;51.228;-1.472;2023-04-03T06:48:05;7.50;;;2.15;;
75234;SDS011;63817;51.228;-1.472;2023-04-03T06:50:31;12.93;;;2.83;;
75234;SDS011;63817;51.228;-1.472;2023-04-03T06:52:56;10.40;;;2.60;;
75234;SDS011;63817;51.228;-1.472;2023-04-03T06:55:21;13.90;;;4.03;;
75234;SDS011;63817;51.228;-1.472;2023-04-03T06:57:47;17.35;;;2.40;;
75234;SDS011;63817;51.228;-1.472;2023-04-03T07:00:13;10.35;;;2.28;;
75234;SDS011;63817;51.228;-1.472;2023-04-03T07:02:38;22.60;;;2.90;;
75234;SDS011;63817;51.228;-1.472;2023-04-03T07:05:04;14.38;;;2.70;;
75234;SDS011;63817;51.228;-1.472;2023-04-03T07:07:30;10.05;;;2.38;;
75234;SDS011;63817;51.228;-1.472;2023-04-03T07:09:56;15.73;;;2.88;;
75234;SDS011;63817;51.228;-1.472;2023-04-03T07:12:21;21.27;;;3.08;;
75234;SDS011;63817;51.228;-1.472;2023-04-03T07:14:46;11.30;;;3.08;;
75234;SDS011;63817;51.228;-1.472;2023-04-03T07:17:12;11.02;;;2.08;;
75234;SDS011;63817;51.228;-1.472;2023-04-03T07:19:37;11.77;;;2.22;;
75234;SDS011;63817;51.228;-1.472;2023-04-03T07:22:03;13.98;;;3.15;;
75234;SDS011;63817;51.228;-1.472;2023-04-03T07:24:28;14.40;;;2.08;;
75234;SDS011;63817;51.228;-1.472;2023-04-03T07:26:54;14.05;;;2.67;;
75234;SDS011;63817;51.228;-1.472;2023-04-03T07:29:19;13.63;;;2.42;;
75234;SDS011;63817;51.228;-1.472;2023-04-03T07:31:46;23.15;;;2.80;;
75234;SDS011;63817;51.228;-1.472;2023-04-03T07:34:12;12.32;;;2.53;;
75234;SDS011;63817;51.228;-1.472;2023-04-03T07:36:37;10.60;;;2.50;;
75234;SDS011;63817;51.228;-1.472;2023-04-03T07:39:03;13.90;;;2.92;;
75234;SDS011;63817;51.228;-1.472;2023-04-03T07:41:28;11.30;;;2.95;;
75234;SDS011;63817;51.228;-1.472;2023-04-03T07:43:55;11.77;;;2.10;;
75234;SDS011;63817;51.228;-1.472;2023-04-03T07:46:21;6.30;;;2.42;;
75234;SDS011;63817;51.228;-1.472;2023-04-03T07:48:47;12.25;;;3.35;;
75234;SDS011;63817;51.228;-1.472;2023-04-03T07:51:12;8.55;;;2.10;;
75234;SDS011;63817;51.228;-1.472;2023-04-03T07:53:38;7.30;;;2.28;;
75234;SDS011;63817;51.228;-1.472;2023-04-03T07:56:04;22.00;;;2.60;;
75234;SDS011;63817;51.228;-1.472;2023-04-03T07:58:30;15.07;;;2.63;;
75234;SDS011;63817;51.228;-1.472;2023-04-03T08:00:55;11.30;;;3.17;;
75234;SDS011;63817;51.228;-1.472;2023-04-03T08:03:21;13.90;;;3.42;;
75234;SDS011;63817;51.228;-1.472;2023-04-03T08:05:47;14.63;;;3.35;;
75234;SDS011;63817;51.228;-1.472;2023-04-03T08:08:15;9.65;;;3.05;;
75234;SDS011;63817;51.228;-1.472;2023-04-03T08:10:42;8.95;;;2.33;;
75234;SDS011;63817;51.228;-1.472;2023-04-03T08:13:08;13.85;;;2.60;;
75234;SDS011;63817;51.228;-1.472;2023-04-03T08:15:34;19.00;;;2.97;;
75234;SDS011;63817;51.228;-1.472;2023-04-03T08:18:00;13.98;;;2.80;;
75234;SDS011;63817;51.228;-1.472;2023-04-03T08:20:26;13.73;;;2.80;;
75234;SDS011;63817;51.228;-1.472;2023-04-03T08:22:51;15.35;;;2.33;;
75234;SDS011;63817;51.228;-1.472;2023-04-03T08:25:17;9.02;;;2.25;;
75234;SDS011;63817;51.228;-1.472;2023-04-03T08:27:43;11.40;;;2.70;;
75234;SDS011;63817;51.228;-1.472;2023-04-03T08:30:08;13.35;;;2.88;;
75234;SDS011;63817;51.228;-1.472;2023-04-03T08:32:34;10.60;;;3.08;;
75234;SDS011;63817;51.228;-1.472;2023-04-03T08:35:00;12.43;;;2.65;;
75234;SDS011;63817;51.228;-1.472;2023-04-03T08:37:26;9.60;;;3.30;;
75234;SDS011;63817;51.228;-1.472;2023-04-03T08:39:52;8.80;;;3.03;;
75234;SDS011;63817;51.228;-1.472;2023-04-03T08:45:05;11.95;;;2.95;;
75234;SDS011;63817;51.228;-1.472;2023-04-03T08:50:06;12.05;;;3.47;;
75234;SDS011;63817;51.228;-1.472;2023-04-03T08:52:36;10.38;;;2.40;;
75234;SDS011;63817;51.228;-1.472;2023-04-03T08:55:06;10.73;;;2.83;;
75234;SDS011;63817;51.228;-1.472;2023-04-03T08:57:39;15.88;;;3.80;;
75234;SDS011;63817;51.228;-1.472;2023-04-03T09:00:14;15.15;;;3.08;;
75234;SDS011;63817;51.228;-1.472;2023-04-03T09:02:49;29.25;;;4.82;;
75234;SDS011;63817;51.228;-1.472;2023-04-03T09:05:59;24.38;;;4.43;;
75234;SDS011;63817;51.228;-1.472;2023-04-03T09:11:25;15.48;;;4.28;;
75234;SDS011;63817;51.228;-1.472;2023-04-03T09:19:15;12.80;;;4.28;;
75234;SDS011;63817;51.228;-1.472;2023-04-03T09:21:53;18.00;;;5.50;;
75234;SDS011;63817;51.228;-1.472;2023-04-03T09:24:22;15.80;;;4.43;;
75234;SDS011;63817;51.228;-1.472;2023-04-03T09:26:50;9.63;;;3.58;;
75234;SDS011;63817;51.228;-1.472;2023-04-03T09:29:19;11.65;;;4.55;;
75234;SDS011;63817;51.228;-1.472;2023-04-03T09:31:49;17.23;;;4.35;;
75234;SDS011;63817;51.228;-1.472;2023-04-03T09:34:26;10.73;;;4.25;;
75234;SDS011;63817;51.228;-1.472;2023-04-03T09:36:54;13.18;;;3.90;;
75234;SDS011;63817;51.228;-1.472;2023-04-03T09:39:25;11.75;;;3.90;;
75234;SDS011;63817;51.228;-1.472;2023-04-03T09:42:00;10.82;;;4.47;;
75234;SDS011;63817;51.228;-1.472;2023-04-03T09:46:55;15.52;;;5.22;;
75234;SDS011;63817;51.228;-1.472;2023-04-03T09:49:21;14.63;;;5.00;;
75234;SDS011;63817;51.228;-1.472;2023-04-03T09:51:46;10.07;;;5.40;;
75234;SDS011;63817;51.228;-1.472;2023-04-03T09:54:26;13.60;;;6.13;;
75234;SDS011;63817;51.228;-1.472;2023-04-03T09:59:32;15.55;;;6.28;;
75234;SDS011;63817;51.228;-1.472;2023-04-03T10:01:59;12.60;;;6.00;;
75234;SDS011;63817;51.228;-1.472;2023-04-03T10:04:37;15.52;;;6.50;;
75234;SDS011;63817;51.228;-1.472;2023-04-03T10:07:25;16.00;;;6.72;;
75234;SDS011;63817;51.228;-1.472;2023-04-03T10:10:35;13.70;;;6.63;;
75234;SDS011;63817;51.228;-1.472;2023-04-03T10:12:47;13.10;;;6.13;;
75234;SDS011;63817;51.228;-1.472;2023-04-03T10:15:14;14.48;;;6.18;;
75234;SDS011;63817;51.228;-1.472;2023-04-03T10:17:57;14.05;;;6.97;;
75234;SDS011;63817;51.228;-1.472;2023-04-03T10:20:36;15.07;;;7.22;;
75234;SDS011;63817;51.228;-1.472;2023-04-03T10:23:17;14.93;;;6.82;;
75234;SDS011;63817;51.228;-1.472;2023-04-03T10:28:20;17.58;;;6.55;;
75234;SDS011;63817;51.228;-1.472;2023-04-03T10:39:45;17.65;;;6.97;;
75234;SDS011;63817;51.228;-1.472;2023-04-03T10:57:52;12.85;;;7.03;;
75234;SDS011;63817;51.228;-1.472;2023-04-03T11:00:20;14.18;;;7.88;;
75234;SDS011;63817;51.228;-1.472;2023-04-03T11:02:54;14.05;;;6.90;;
75234;SDS011;63817;51.228;-1.472;2023-04-03T11:05:30;13.18;;;6.63;;
75234;SDS011;63817;51.228;-1.472;2023-04-03T11:08:02;18.48;;;6.80;;
75234;SDS011;63817;51.228;-1.472;2023-04-03T11:10:37;13.20;;;6.43;;
75234;SDS011;63817;51.228;-1.472;2023-04-03T11:15:38;11.43;;;6.80;;
75234;SDS011;63817;51.228;-1.472;2023-04-03T11:18:06;11.77;;;6.40;;
75234;SDS011;63817;51.228;-1.472;2023-04-03T11:20:36;13.82;;;7.63;;
75234;SDS011;63817;51.228;-1.472;2023-04-03T11:23:03;14.05;;;7.05;;
75234;SDS011;63817;51.228;-1.472;2023-04-03T11:25:32;11.60;;;7.28;;
75234;SDS011;63817;51.228;-1.472;2023-04-03T11:27:59;11.73;;;6.53;;
75234;SDS011;63817;51.228;-1.472;2023-04-03T11:30:32;13.55;;;7.07;;
75234;SDS011;63817;51.228;-1.472;2023-04-03T11:33:05;14.02;;;6.25;;
75234;SDS011;63817;51.228;-1.472;2023-04-03T11:35:42;10.80;;;6.88;;
75234;SDS011;63817;51.228;-1.472;2023-04-03T11:38:10;17.85;;;6.88;;
75234;SDS011;63817;51.228;-1.472;2023-04-03T11:43:21;14.50;;;7.23;;
75234;SDS011;63817;51.228;-1.472;2023-04-03T11:50:53;15.77;;;6.00;;
75234;SDS011;63817;51.228;-1.472;2023-04-03T11:55:58;11.90;;;6.13;;
75234;SDS011;63817;51.228;-1.472;2023-04-03T12:05:54;13.07;;;6.47;;
75234;SDS011;63817;51.228;-1.472;2023-04-03T12:08:30;14.68;;;7.00;;
75234;SDS011;63817;51.228;-1.472;2023-04-03T12:11:13;12.55;;;7.47;;
75234;SDS011;63817;51.228;-1.472;2023-04-03T12:51:09;11.73;;;6.07;;
75234;SDS011;63817;51.228;-1.472;2023-04-03T12:53:40;12.40;;;6.40;;
75234;SDS011;63817;51.228;-1.472;2023-04-03T12:56:24;14.13;;;6.03;;
75234;SDS011;63817;51.228;-1.472;2023-04-03T12:58:52;16.77;;;6.55;;
75234;SDS011;63817;51.228;-1.472;2023-04-03T13:01:25;11.48;;;5.43;;
75234;SDS011;63817;51.228;-1.472;2023-04-03T13:03:57;13.65;;;6.93;;
75234;SDS011;63817;51.228;-1.472;2023-04-03T13:06:24;14.95;;;7.07;;
75234;SDS011;63817;51.228;-1.472;2023-04-03T13:08:53;12.15;;;6.88;;
75234;SDS011;63817;51.228;-1.472;2023-04-03T13:11:22;13.75;;;6.03;;
75234;SDS011;63817;51.228;-1.472;2023-04-03T13:13:59;11.75;;;6.10;;
75234;SDS011;63817;51.228;-1.472;2023-04-03T13:16:28;10.35;;;5.70;;
75234;SDS011;63817;51.228;-1.472;2023-04-03T13:18:54;14.48;;;6.00;;
75234;SDS011;63817;51.228;-1.472;2023-04-03T13:21:30;8.05;;;5.38;;
75234;SDS011;63817;51.228;-1.472;2023-04-03T13:23:57;15.10;;;6.13;;
75234;SDS011;63817;51.228;-1.472;2023-04-03T13:26:26;12.23;;;6.50;;
75234;SDS011;63817;51.228;-1.472;2023-04-03T13:28:58;12.60;;;6.85;;
75234;SDS011;63817;51.228;-1.472;2023-04-03T13:31:27;12.55;;;6.32;;
75234;SDS011;63817;51.228;-1.472;2023-04-03T13:34:03;8.50;;;5.63;;
75234;SDS011;63817;51.228;-1.472;2023-04-03T13:36:33;10.32;;;5.82;;
75234;SDS011;63817;51.228;-1.472;2023-04-03T13:41:36;16.63;;;5.57;;
75234;SDS011;63817;51.228;-1.472;2023-04-03T13:46:51;9.65;;;5.85;;
75234;SDS011;63817;51.228;-1.472;2023-04-03T13:51:43;11.00;;;5.90;;
75234;SDS011;63817;51.228;-1.472;2023-04-03T13:54:28;15.32;;;5.75;;
75234;SDS011;63817;51.228;-1.472;2023-04-03T13:56:59;16.10;;;6.50;;
75234;SDS011;63817;51.228;-1.472;2023-04-03T13:59:30;12.27;;;5.35;;
75234;SDS011;63817;51.228;-1.472;2023-04-03T14:04:32;10.55;;;4.88;;
75234;SDS011;63817;51.228;-1.472;2023-04-03T14:07:09;14.57;;;5.28;;
75234;SDS011;63817;51.228;-1.472;2023-04-03T14:09:38;9.85;;;5.28;;
75234;SDS011;63817;51.228;-1.472;2023-04-03T14:12:08;12.43;;;5.68;;
75234;SDS011;63817;51.228;-1.472;2023-04-03T14:14:39;13.68;;;5.40;;
75234;SDS011;63817;51.228;-1.472;2023-04-03T14:17:18;15.07;;;5.10;;
75234;SDS011;63817;51.228;-1.472;2023-04-03T14:19:46;11.68;;;4.70;;
75234;SDS011;63817;51.228;-1.472;2023-04-03T14:22:15;12.77;;;5.38;;
75234;SDS011;63817;51.228;-1.472;2023-04-03T14:24:44;15.05;;;5.15;;
75234;SDS011;63817;51.228;-1.472;2023-04-03T14:29:43;10.30;;;4.57;;
75234;SDS011;63817;51.228;-1.472;2023-04-03T14:32:11;9.18;;;4.90;;
75234;SDS011;63817;51.228;-1.472;2023-04-03T14:34:38;14.13;;;5.53;;
75234;SDS011;63817;51.228;-1.472;2023-04-03T14:37:04;10.55;;;5.35;;
75234;SDS011;63817;51.228;-1.472;2023-04-03T14:39:30;13.73;;;5.38;;
75234;SDS011;63817;51.228;-1.472;2023-04-03T14:41:56;8.35;;;4.70;;
75234;SDS011;63817;51.228;-1.472;2023-04-03T14:44:21;11.35;;;4.40;;
75234;SDS011;63817;51.228;-1.472;2023-04-03T14:46:48;11.05;;;4.32;;
75234;SDS011;63817;51.228;-1.472;2023-04-03T14:49:18;11.25;;;5.25;;
75234;SDS011;63817;51.228;-1.472;2023-04-03T14:51:45;8.70;;;4.65;;
75234;SDS011;63817;51.228;-1.472;2023-04-03T14:54:13;11.32;;;4.53;;
75234;SDS011;63817;51.228;-1.472;2023-04-03T14:56:41;10.50;;;4.00;;
75234;SDS011;63817;51.228;-1.472;2023-04-03T14:59:13;13.20;;;4.15;;
75234;SDS011;63817;51.228;-1.472;2023-04-03T15:01:40;7.45;;;3.80;;
75234;SDS011;63817;51.228;-1.472;2023-04-03T15:04:10;10.02;;;4.70;;
75234;SDS011;63817;51.228;-1.472;2023-04-03T15:06:45;12.20;;;4.13;;
75234;SDS011;63817;51.228;-1.472;2023-04-03T15:11:46;12.77;;;4.78;;
75234;SDS011;63817;51.228;-1.472;2023-04-03T15:14:12;11.60;;;4.13;;
75234;SDS011;63817;51.228;-1.472;2023-04-03T15:16:38;12.48;;;5.03;;
75234;SDS011;63817;51.228;-1.472;2023-04-03T15:19:03;10.93;;;4.40;;
75234;SDS011;63817;51.228;-1.472;2023-04-03T15:21:29;13.00;;;4.15;;
75234;SDS011;63817;51.228;-1.472;2023-04-03T15:23:54;12.77;;;4.15;;
75234;SDS011;63817;51.228;-1.472;2023-04-03T15:26:20;10.18;;;4.65;;
75234;SDS011;63817;51.228;-1.472;2023-04-03T15:28:45;9.73;;;4.53;;
75234;SDS011;63817;51.228;-1.472;2023-04-03T15:31:11;8.82;;;4.38;;
75234;SDS011;63817;51.228;-1.472;2023-04-03T15:33:37;10.10;;;4.97;;
75234;SDS011;63817;51.228;-1.472;2023-04-03T15:36:03;7.43;;;4.53;;
75234;SDS011;63817;51.228;-1.472;2023-04-03T15:38:29;9.45;;;4.40;;
75234;SDS011;63817;51.228;-1.472;2023-04-03T15:40:54;9.82;;;3.83;;
75234;SDS011;63817;51.228;-1.472;2023-04-03T15:43:20;14.82;;;3.80;;
75234;SDS011;63817;51.228;-1.472;2023-04-03T15:45:46;11.73;;;3.70;;
75234;SDS011;63817;51.228;-1.472;2023-04-03T15:48:11;12.10;;;4.15;;
75234;SDS011;63817;51.228;-1.472;2023-04-03T15:50:37;10.55;;;4.38;;
75234;SDS011;63817;51.228;-1.472;2023-04-03T15:53:03;10.27;;;4.85;;
75234;SDS011;63817;51.228;-1.472;2023-04-03T15:55:29;8.02;;;4.13;;
75234;SDS011;63817;51.228;-1.472;2023-04-03T15:57:56;10.27;;;3.80;;
75234;SDS011;63817;51.228;-1.472;2023-04-03T16:00:22;9.68;;;3.83;;
75234;SDS011;63817;51.228;-1.472;2023-04-03T16:02:48;8.80;;;3.95;;
75234;SDS011;63817;51.228;-1.472;2023-04-03T16:05:22;7.78;;;4.22;;
75234;SDS011;63817;51.228;-1.472;2023-04-03T16:07:48;10.68;;;4.00;;
75234;SDS011;63817;51.228;-1.472;2023-04-03T16:10:14;12.27;;;4.20;;
75234;SDS011;63817;51.228;-1.472;2023-04-03T16:12:40;12.98;;;4.18;;
75234;SDS011;63817;51.228;-1.472;2023-04-03T16:15:06;11.63;;;3.92;;
75234;SDS011;63817;51.228;-1.472;2023-04-03T16:17:32;7.63;;;3.63;;
75234;SDS011;63817;51.228;-1.472;2023-04-03T16:19:59;7.35;;;3.58;;
75234;SDS011;63817;51.228;-1.472;2023-04-03T16:22:25;7.18;;;3.58;;
75234;SDS011;63817;51.228;-1.472;2023-04-03T16:24:51;7.35;;;3.60;;
75234;SDS011;63817;51.228;-1.472;2023-04-03T16:27:16;9.98;;;4.55;;
75234;SDS011;63817;51.228;-1.472;2023-04-03T16:29:42;9.02;;;4.32;;
75234;SDS011;63817;51.228;-1.472;2023-04-03T16:32:07;7.43;;;3.63;;
75234;SDS011;63817;51.228;-1.472;2023-04-03T16:34:33;8.30;;;3.53;;
75234;SDS011;63817;51.228;-1.472;2023-04-03T16:36:58;7.93;;;3.30;;